sensor_id;sensor_type;location;lat;lon;timestamp;temperature;humidity
24645;DHT22;12780;45.502;9.146;2022-10-29T00:00:37;16.80;99.90
24645;DHT22;12780;45.502;9.146;2022-10-29T00:03:03;16.70;99.90
24645;DHT22;12780;45.502;9.146;2022-10-29T00:05:28;16.80;99.90
24645;DHT22;12780;45.502;9.146;2022-10-29T00:07:54;16.90;99.90
24645;DHT22;12780;45.502;9.146;2022-10-29T00:10:19;16.80;99.90
24645;DHT22;12780;45.502;9.146;2022-10-29T00:12:45;16.70;99.90
24645;DHT22;12780;45.502;9.146;2022-10-29T00:15:11;16.80;99.90
24645;DHT22;12780;45.502;9.146;2022-10-29T00:17:37;16.70;99.90
24645;DHT22;12780;45.502;9.146;2022-10-29T00:20:03;16.70;99.90
24645;DHT22;12780;45.502;9.146;2022-10-29T00:22:28;16.70;99.90
24645;DHT22;12780;45.502;9.146;2022-10-29T00:24:54;16.70;99.90
24645;DHT22;12780;45.502;9.146;2022-10-29T00:27:19;16.70;99.90
24645;DHT22;12780;45.502;9.146;2022-10-29T00:29:45;16.70;99.90
24645;DHT22;12780;45.502;9.146;2022-10-29T00:32:10;16.60;99.90
24645;DHT22;12780;45.502;9.146;2022-10-29T00:34:36;16.60;99.90
24645;DHT22;12780;45.502;9.146;2022-10-29T00:37:05;16.60;99.90
24645;DHT22;12780;45.502;9.146;2022-10-29T00:39:31;16.60;99.90
24645;DHT22;12780;45.502;9.146;2022-10-29T00:42:00;16.60;99.90
24645;DHT22;12780;45.502;9.146;2022-10-29T12:27:15;21.90;99.90
24645;DHT22;12780;45.502;9.146;2022-10-29T12:29:54;21.90;99.90
24645;DHT22;12780;45.502;9.146;2022-10-29T12:38:38;21.90;99.90
24645;DHT22;12780;45.502;9.146;2022-10-29T12:41:20;21.90;99.90
24645;DHT22;12780;45.502;9.146;2022-10-29T12:43:48;21.90;99.90
24645;DHT22;12780;45.502;9.146;2022-10-29T12:49:14;21.90;99.90
24645;DHT22;12780;45.502;9.146;2022-10-29T12:51:46;21.90;99.90
24645;DHT22;12780;45.502;9.146;2022-10-29T12:54:36;22.00;99.90
24645;DHT22;12780;45.502;9.146;2022-10-29T12:57:49;22.00;99.90
24645;DHT22;12780;45.502;9.146;2022-10-29T12:59:49;22.00;99.90
24645;DHT22;12780;45.502;9.146;2022-10-29T13:07:30;22.10;99.90
24645;DHT22;12780;45.502;9.146;2022-10-29T13:15:33;22.20;99.90
24645;DHT22;12780;45.502;9.146;2022-10-29T13:20:52;22.20;99.90
24645;DHT22;12780;45.502;9.146;2022-10-29T13:30:40;22.30;99.90
24645;DHT22;12780;45.502;9.146;2022-10-29T13:36:03;22.30;99.90
24645;DHT22;12780;45.502;9.146;2022-10-29T13:38:42;22.30;99.90
24645;DHT22;12780;45.502;9.146;2022-10-29T13:41:17;22.30;99.90
24645;DHT22;12780;45.502;9.146;2022-10-29T13:44:10;22.40;99.90
24645;DHT22;12780;45.502;9.146;2022-10-29T13:46:57;22.40;99.90
24645;DHT22;12780;45.502;9.146;2022-10-29T13:49:44;22.40;99.90
24645;DHT22;12780;45.502;9.146;2022-10-29T13:52:14;22.50;99.90
24645;DHT22;12780;45.502;9.146;2022-10-29T13:54:50;22.40;99.90
24645;DHT22;12780;45.502;9.146;2022-10-29T13:57:24;22.50;99.90
24645;DHT22;12780;45.502;9.146;2022-10-29T13:59:54;22.50;99.90
24645;DHT22;12780;45.502;9.146;2022-10-29T14:02:22;22.50;99.90
24645;DHT22;12780;45.502;9.146;2022-10-29T14:04:53;22.50;99.90
24645;DHT22;12780;45.502;9.146;2022-10-29T14:07:41;22.50;99.90
24645;DHT22;12780;45.502;9.146;2022-10-29T14:10:17;22.50;99.90
24645;DHT22;12780;45.502;9.146;2022-10-29T14:12:46;22.50;99.90
24645;DHT22;12780;45.502;9.146;2022-10-29T14:15:13;22.50;99.90
24645;DHT22;12780;45.502;9.146;2022-10-29T14:17:40;22.50;99.90
24645;DHT22;12780;45.502;9.146;2022-10-29T14:20:27;22.60;99.90
24645;DHT22;12780;45.502;9.146;2022-10-29T14:22:53;22.50;99.90
24645;DHT22;12780;45.502;9.146;2022-10-29T14:25:31;22.50;99.90
24645;DHT22;12780;45.502;9.146;2022-10-29T14:28:28;22.50;99.90
24645;DHT22;12780;45.502;9.146;2022-10-29T14:33:37;22.50;99.90
24645;DHT22;12780;45.502;9.146;2022-10-29T14:39:16;22.50;99.90
24645;DHT22;12780;45.502;9.146;2022-10-29T14:41:45;22.40;99.90
24645;DHT22;12780;45.502;9.146;2022-10-29T14:44:29;22.50;99.90
24645;DHT22;12780;45.502;9.146;2022-10-29T14:47:12;22.40;99.90
24645;DHT22;12780;45.502;9.146;2022-10-29T14:49:46;22.30;99.90
24645;DHT22;12780;45.502;9.146;2022-10-29T14:52:29;22.30;99.90
24645;DHT22;12780;45.502;9.146;2022-10-29T14:55:04;22.20;99.90
24645;DHT22;12780;45.502;9.146;2022-10-29T14:57:32;22.20;99.90
24645;DHT22;12780;45.502;9.146;2022-10-29T15:00:03;22.20;99.90
24645;DHT22;12780;45.502;9.146;2022-10-29T15:02:38;22.10;99.90
24645;DHT22;12780;45.502;9.146;2022-10-29T15:05:26;22.10;99.90
24645;DHT22;12780;45.502;9.146;2022-10-29T15:10:45;22.00;99.90
24645;DHT22;12780;45.502;9.146;2022-10-29T15:16:07;22.00;99.90
24645;DHT22;12780;45.502;9.146;2022-10-29T15:18:34;21.90;99.90
24645;DHT22;12780;45.502;9.146;2022-10-29T15:21:01;21.90;99.90
24645;DHT22;12780;45.502;9.146;2022-10-29T15:23:31;21.90;99.90
24645;DHT22;12780;45.502;9.146;2022-10-29T15:26:03;21.80;99.90
24645;DHT22;12780;45.502;9.146;2022-10-29T15:28:35;21.80;99.90
24645;DHT22;12780;45.502;9.146;2022-10-29T15:31:02;21.80;99.90
24645;DHT22;12780;45.502;9.146;2022-10-29T15:33:29;21.70;99.90
24645;DHT22;12780;45.502;9.146;2022-10-29T15:36:01;21.70;99.90
24645;DHT22;12780;45.502;9.146;2022-10-29T15:43:33;21.60;99.90
24645;DHT22;12780;45.502;9.146;2022-10-29T15:46:00;21.50;99.90
24645;DHT22;12780;45.502;9.146;2022-10-29T15:48:28;21.50;99.90
24645;DHT22;12780;45.502;9.146;2022-10-29T15:50:55;21.40;99.90
24645;DHT22;12780;45.502;9.146;2022-10-29T15:53:22;21.30;99.90
24645;DHT22;12780;45.502;9.146;2022-10-29T15:55:50;21.30;99.90
24645;DHT22;12780;45.502;9.146;2022-10-29T15:58:19;21.10;99.90
24645;DHT22;12780;45.502;9.146;2022-10-29T16:00:47;21.10;99.90
24645;DHT22;12780;45.502;9.146;2022-10-29T16:03:14;21.00;99.90
24645;DHT22;12780;45.502;9.146;2022-10-29T16:05:41;20.90;99.90
24645;DHT22;12780;45.502;9.146;2022-10-29T16:10:45;20.80;99.90
24645;DHT22;12780;45.502;9.146;2022-10-29T16:13:10;20.80;99.90
24645;DHT22;12780;45.502;9.146;2022-10-29T16:15:36;20.60;99.90
24645;DHT22;12780;45.502;9.146;2022-10-29T16:18:02;20.50;99.90
24645;DHT22;12780;45.502;9.146;2022-10-29T16:20:27;20.50;99.90
24645;DHT22;12780;45.502;9.146;2022-10-29T16:22:53;20.40;99.90
24645;DHT22;12780;45.502;9.146;2022-10-29T16:25:24;20.40;99.90
24645;DHT22;12780;45.502;9.146;2022-10-29T16:27:51;20.30;99.90
24645;DHT22;12780;45.502;9.146;2022-10-29T16:30:18;20.30;99.90
24645;DHT22;12780;45.502;9.146;2022-10-29T16:32:44;20.20;99.90
24645;DHT22;12780;45.502;9.146;2022-10-29T16:35:22;20.10;99.90
24645;DHT22;12780;45.502;9.146;2022-10-29T16:37:48;20.10;99.90
24645;DHT22;12780;45.502;9.146;2022-10-29T16:40:15;20.00;99.90
24645;DHT22;12780;45.502;9.146;2022-10-29T16:42:41;20.00;99.90
24645;DHT22;12780;45.502;9.146;2022-10-29T16:45:12;20.00;99.90
24645;DHT22;12780;45.502;9.146;2022-10-29T16:47:38;19.90;99.90
24645;DHT22;12780;45.502;9.146;2022-10-29T16:50:04;19.80;99.90
24645;DHT22;12780;45.502;9.146;2022-10-29T16:52:29;19.80;99.90
24645;DHT22;12780;45.502;9.146;2022-10-29T16:54:55;19.70;99.90
24645;DHT22;12780;45.502;9.146;2022-10-29T16:57:21;19.70;99.90
24645;DHT22;12780;45.502;9.146;2022-10-29T16:59:48;19.70;99.90
24645;DHT22;12780;45.502;9.146;2022-10-29T17:02:13;19.70;99.90
24645;DHT22;12780;45.502;9.146;2022-10-29T17:04:39;19.60;99.90
24645;DHT22;12780;45.502;9.146;2022-10-29T17:07:04;19.50;99.90
24645;DHT22;12780;45.502;9.146;2022-10-29T17:09:30;19.60;99.90
24645;DHT22;12780;45.502;9.146;2022-10-29T17:11:59;19.50;99.90
24645;DHT22;12780;45.502;9.146;2022-10-29T17:14:25;19.60;99.90
24645;DHT22;12780;45.502;9.146;2022-10-29T17:16:51;19.40;99.90
24645;DHT22;12780;45.502;9.146;2022-10-29T17:19:16;19.40;99.90
24645;DHT22;12780;45.502;9.146;2022-10-29T17:21:42;19.30;99.90
24645;DHT22;12780;45.502;9.146;2022-10-29T17:24:08;19.30;99.90
24645;DHT22;12780;45.502;9.146;2022-10-29T17:26:33;19.30;99.90
24645;DHT22;12780;45.502;9.146;2022-10-29T17:28:59;19.20;99.90
24645;DHT22;12780;45.502;9.146;2022-10-29T17:31:24;19.10;99.90
24645;DHT22;12780;45.502;9.146;2022-10-29T17:33:51;19.20;99.90
24645;DHT22;12780;45.502;9.146;2022-10-29T17:36:17;19.20;99.90
24645;DHT22;12780;45.502;9.146;2022-10-29T17:38:43;19.10;99.90
24645;DHT22;12780;45.502;9.146;2022-10-29T17:41:09;19.10;99.90
24645;DHT22;12780;45.502;9.146;2022-10-29T17:43:34;19.10;99.90
24645;DHT22;12780;45.502;9.146;2022-10-29T17:46:00;19.10;99.90
24645;DHT22;12780;45.502;9.146;2022-10-29T17:48:25;19.10;99.90
24645;DHT22;12780;45.502;9.146;2022-10-29T17:50:52;19.10;99.90
24645;DHT22;12780;45.502;9.146;2022-10-29T17:53:18;19.00;99.90
24645;DHT22;12780;45.502;9.146;2022-10-29T17:55:44;19.00;99.90
24645;DHT22;12780;45.502;9.146;2022-10-29T17:58:09;19.00;99.90
24645;DHT22;12780;45.502;9.146;2022-10-29T18:00:35;18.90;99.90
24645;DHT22;12780;45.502;9.146;2022-10-29T18:03:00;18.90;99.90
24645;DHT22;12780;45.502;9.146;2022-10-29T18:05:26;18.90;99.90
24645;DHT22;12780;45.502;9.146;2022-10-29T18:07:51;18.90;99.90
24645;DHT22;12780;45.502;9.146;2022-10-29T18:10:17;18.80;99.90
24645;DHT22;12780;45.502;9.146;2022-10-29T18:12:42;18.80;99.90
24645;DHT22;12780;45.502;9.146;2022-10-29T18:15:08;18.80;99.90
24645;DHT22;12780;45.502;9.146;2022-10-29T18:17:34;18.80;99.90
24645;DHT22;12780;45.502;9.146;2022-10-29T18:20:01;18.80;99.90
24645;DHT22;12780;45.502;9.146;2022-10-29T18:22:26;18.80;99.90
24645;DHT22;12780;45.502;9.146;2022-10-29T18:24:52;18.80;99.90
24645;DHT22;12780;45.502;9.146;2022-10-29T18:27:17;18.70;99.90
24645;DHT22;12780;45.502;9.146;2022-10-29T18:29:44;18.70;99.90
24645;DHT22;12780;45.502;9.146;2022-10-29T18:32:10;18.80;99.90
24645;DHT22;12780;45.502;9.146;2022-10-29T18:34:36;18.70;99.90
24645;DHT22;12780;45.502;9.146;2022-10-29T18:37:02;18.60;99.90
24645;DHT22;12780;45.502;9.146;2022-10-29T18:39:27;18.60;99.90
24645;DHT22;12780;45.502;9.146;2022-10-29T18:41:53;18.60;99.90
24645;DHT22;12780;45.502;9.146;2022-10-29T18:44:18;18.60;99.90
24645;DHT22;12780;45.502;9.146;2022-10-29T18:46:44;18.60;99.90
24645;DHT22;12780;45.502;9.146;2022-10-29T18:49:10;18.60;99.90
24645;DHT22;12780;45.502;9.146;2022-10-29T18:51:37;18.60;99.90
24645;DHT22;12780;45.502;9.146;2022-10-29T18:54:03;18.60;99.90
24645;DHT22;12780;45.502;9.146;2022-10-29T18:56:29;18.50;99.90
24645;DHT22;12780;45.502;9.146;2022-10-29T18:58:56;18.50;99.90
24645;DHT22;12780;45.502;9.146;2022-10-29T19:01:24;18.50;99.90
24645;DHT22;12780;45.502;9.146;2022-10-29T19:03:55;18.50;99.90
24645;DHT22;12780;45.502;9.146;2022-10-29T19:06:23;18.40;99.90
24645;DHT22;12780;45.502;9.146;2022-10-29T19:08:49;18.30;99.90
24645;DHT22;12780;45.502;9.146;2022-10-29T19:11:18;18.40;99.90
24645;DHT22;12780;45.502;9.146;2022-10-29T19:13:52;18.40;99.90
24645;DHT22;12780;45.502;9.146;2022-10-29T19:16:18;18.40;99.90
24645;DHT22;12780;45.502;9.146;2022-10-29T19:18:44;18.40;99.90
24645;DHT22;12780;45.502;9.146;2022-10-29T19:21:14;18.30;99.90
24645;DHT22;12780;45.502;9.146;2022-10-29T19:23:40;18.30;99.90
24645;DHT22;12780;45.502;9.146;2022-10-29T19:26:09;18.20;99.90
24645;DHT22;12780;45.502;9.146;2022-10-29T19:28:35;18.30;99.90
24645;DHT22;12780;45.502;9.146;2022-10-29T19:31:08;18.30;99.90
24645;DHT22;12780;45.502;9.146;2022-10-29T19:33:34;18.30;99.90
24645;DHT22;12780;45.502;9.146;2022-10-29T19:36:01;18.30;99.90
24645;DHT22;12780;45.502;9.146;2022-10-29T19:38:27;18.30;99.90
24645;DHT22;12780;45.502;9.146;2022-10-29T19:40:52;18.20;99.90
24645;DHT22;12780;45.502;9.146;2022-10-29T19:43:21;18.20;99.90
24645;DHT22;12780;45.502;9.146;2022-10-29T19:45:47;18.20;99.90
24645;DHT22;12780;45.502;9.146;2022-10-29T19:48:13;18.20;99.90
24645;DHT22;12780;45.502;9.146;2022-10-29T19:50:38;18.20;99.90
24645;DHT22;12780;45.502;9.146;2022-10-29T19:53:04;18.20;99.90
24645;DHT22;12780;45.502;9.146;2022-10-29T19:55:30;18.20;99.90
24645;DHT22;12780;45.502;9.146;2022-10-29T19:57:55;18.30;99.90
24645;DHT22;12780;45.502;9.146;2022-10-29T20:00:21;18.20;99.90
24645;DHT22;12780;45.502;9.146;2022-10-29T20:02:50;18.00;99.90
24645;DHT22;12780;45.502;9.146;2022-10-29T20:05:16;18.10;99.90
24645;DHT22;12780;45.502;9.146;2022-10-29T20:07:41;18.10;99.90
24645;DHT22;12780;45.502;9.146;2022-10-29T20:10:07;18.10;99.90
24645;DHT22;12780;45.502;9.146;2022-10-29T20:12:33;18.10;99.90
24645;DHT22;12780;45.502;9.146;2022-10-29T20:14:58;18.20;99.90
24645;DHT22;12780;45.502;9.146;2022-10-29T20:17:24;18.00;99.90
24645;DHT22;12780;45.502;9.146;2022-10-29T20:19:49;18.00;99.90
24645;DHT22;12780;45.502;9.146;2022-10-29T20:22:15;18.00;99.90
24645;DHT22;12780;45.502;9.146;2022-10-29T20:24:40;18.00;99.90
24645;DHT22;12780;45.502;9.146;2022-10-29T20:27:06;18.00;99.90
24645;DHT22;12780;45.502;9.146;2022-10-29T20:29:31;18.00;99.90
24645;DHT22;12780;45.502;9.146;2022-10-29T20:31:57;18.00;99.90
24645;DHT22;12780;45.502;9.146;2022-10-29T20:34:22;17.90;99.90
24645;DHT22;12780;45.502;9.146;2022-10-29T20:36:48;18.10;99.90
24645;DHT22;12780;45.502;9.146;2022-10-29T20:39:14;17.90;99.90
24645;DHT22;12780;45.502;9.146;2022-10-29T20:41:40;17.90;99.90
24645;DHT22;12780;45.502;9.146;2022-10-29T20:44:06;17.90;99.90
24645;DHT22;12780;45.502;9.146;2022-10-29T20:46:32;17.80;99.90
24645;DHT22;12780;45.502;9.146;2022-10-29T20:48:58;17.80;99.90
24645;DHT22;12780;45.502;9.146;2022-10-29T20:51:24;17.80;99.90
24645;DHT22;12780;45.502;9.146;2022-10-29T20:53:51;17.90;99.90
24645;DHT22;12780;45.502;9.146;2022-10-29T20:56:18;17.90;99.90
24645;DHT22;12780;45.502;9.146;2022-10-29T20:58:44;17.80;99.90
24645;DHT22;12780;45.502;9.146;2022-10-29T21:01:11;17.80;99.90
24645;DHT22;12780;45.502;9.146;2022-10-29T21:03:37;17.70;99.90
24645;DHT22;12780;45.502;9.146;2022-10-29T21:06:04;17.70;99.90
24645;DHT22;12780;45.502;9.146;2022-10-29T21:08:30;17.70;99.90
24645;DHT22;12780;45.502;9.146;2022-10-29T21:10:59;17.70;99.90
24645;DHT22;12780;45.502;9.146;2022-10-29T21:13:25;17.70;99.90
24645;DHT22;12780;45.502;9.146;2022-10-29T21:15:51;17.80;99.90
24645;DHT22;12780;45.502;9.146;2022-10-29T21:18:16;17.70;99.90
24645;DHT22;12780;45.502;9.146;2022-10-29T21:20:42;17.60;99.90
24645;DHT22;12780;45.502;9.146;2022-10-29T21:23:07;17.60;99.90
24645;DHT22;12780;45.502;9.146;2022-10-29T21:25:33;17.60;99.90
24645;DHT22;12780;45.502;9.146;2022-10-29T21:27:58;17.60;99.90
24645;DHT22;12780;45.502;9.146;2022-10-29T21:30:24;17.60;99.90
24645;DHT22;12780;45.502;9.146;2022-10-29T21:32:49;17.50;99.90
24645;DHT22;12780;45.502;9.146;2022-10-29T21:35:16;17.50;99.90
24645;DHT22;12780;45.502;9.146;2022-10-29T21:37:42;17.50;99.90
24645;DHT22;12780;45.502;9.146;2022-10-29T21:40:09;17.50;99.90
24645;DHT22;12780;45.502;9.146;2022-10-29T21:42:34;17.50;99.90
24645;DHT22;12780;45.502;9.146;2022-10-29T21:45:00;17.50;99.90
24645;DHT22;12780;45.502;9.146;2022-10-29T21:47:25;17.50;99.90
24645;DHT22;12780;45.502;9.146;2022-10-29T21:49:51;17.50;99.90
24645;DHT22;12780;45.502;9.146;2022-10-29T21:52:16;17.40;99.90
24645;DHT22;12780;45.502;9.146;2022-10-29T21:54:42;17.30;99.90
24645;DHT22;12780;45.502;9.146;2022-10-29T21:57:08;17.40;99.90
24645;DHT22;12780;45.502;9.146;2022-10-29T21:59:33;17.40;99.90
24645;DHT22;12780;45.502;9.146;2022-10-29T22:01:59;17.40;99.90
24645;DHT22;12780;45.502;9.146;2022-10-29T22:04:25;17.30;99.90
24645;DHT22;12780;45.502;9.146;2022-10-29T22:06:51;17.20;99.90
24645;DHT22;12780;45.502;9.146;2022-10-29T22:09:16;17.30;99.90
24645;DHT22;12780;45.502;9.146;2022-10-29T22:11:42;17.30;99.90
24645;DHT22;12780;45.502;9.146;2022-10-29T22:14:07;17.30;99.90
24645;DHT22;12780;45.502;9.146;2022-10-29T22:16:33;17.30;99.90
24645;DHT22;12780;45.502;9.146;2022-10-29T22:18:58;17.30;99.90
24645;DHT22;12780;45.502;9.146;2022-10-29T22:21:25;17.20;99.90
24645;DHT22;12780;45.502;9.146;2022-10-29T22:23:55;17.20;99.90
24645;DHT22;12780;45.502;9.146;2022-10-29T22:26:26;17.20;99.90
24645;DHT22;12780;45.502;9.146;2022-10-29T22:28:52;17.20;99.90
24645;DHT22;12780;45.502;9.146;2022-10-29T22:31:20;17.20;99.90
24645;DHT22;12780;45.502;9.146;2022-10-29T22:33:46;17.10;99.90
24645;DHT22;12780;45.502;9.146;2022-10-29T22:36:15;17.00;99.90
24645;DHT22;12780;45.502;9.146;2022-10-29T22:38:41;17.10;99.90
24645;DHT22;12780;45.502;9.146;2022-10-29T22:41:10;17.10;99.90
24645;DHT22;12780;45.502;9.146;2022-10-29T22:43:36;17.10;99.90
24645;DHT22;12780;45.502;9.146;2022-10-29T22:46:03;17.00;99.90
24645;DHT22;12780;45.502;9.146;2022-10-29T22:48:29;17.00;99.90
24645;DHT22;12780;45.502;9.146;2022-10-29T22:53:27;17.00;99.90
24645;DHT22;12780;45.502;9.146;2022-10-29T22:55:53;16.90;99.90
24645;DHT22;12780;45.502;9.146;2022-10-29T22:58:19;17.00;99.90
24645;DHT22;12780;45.502;9.146;2022-10-29T23:00:45;17.00;99.90
24645;DHT22;12780;45.502;9.146;2022-10-29T23:03:11;16.90;99.90
24645;DHT22;12780;45.502;9.146;2022-10-29T23:05:36;17.00;99.90
24645;DHT22;12780;45.502;9.146;2022-10-29T23:08:02;16.90;99.90
24645;DHT22;12780;45.502;9.146;2022-10-29T23:10:27;16.90;99.90
24645;DHT22;12780;45.502;9.146;2022-10-29T23:12:53;16.80;99.90
24645;DHT22;12780;45.502;9.146;2022-10-29T23:15:19;16.90;99.90
24645;DHT22;12780;45.502;9.146;2022-10-29T23:17:44;16.80;99.90
24645;DHT22;12780;45.502;9.146;2022-10-29T23:20:10;16.70;99.90
24645;DHT22;12780;45.502;9.146;2022-10-29T23:22:35;16.80;99.90
24645;DHT22;12780;45.502;9.146;2022-10-29T23:25:01;16.80;99.90
24645;DHT22;12780;45.502;9.146;2022-10-29T23:27:26;16.80;99.90
24645;DHT22;12780;45.502;9.146;2022-10-29T23:29:52;16.80;99.90
24645;DHT22;12780;45.502;9.146;2022-10-29T23:32:18;16.80;99.90
24645;DHT22;12780;45.502;9.146;2022-10-29T23:34:43;16.80;99.90
24645;DHT22;12780;45.502;9.146;2022-10-29T23:37:09;16.80;99.90
24645;DHT22;12780;45.502;9.146;2022-10-29T23:39:34;16.70;99.90
24645;DHT22;12780;45.502;9.146;2022-10-29T23:42:00;16.80;99.90
24645;DHT22;12780;45.502;9.146;2022-10-29T23:44:25;16.70;99.90
24645;DHT22;12780;45.502;9.146;2022-10-29T23:46:51;16.70;99.90
24645;DHT22;12780;45.502;9.146;2022-10-29T23:49:16;16.70;99.90
24645;DHT22;12780;45.502;9.146;2022-10-29T23:51:42;16.70;99.90
24645;DHT22;12780;45.502;9.146;2022-10-29T23:54:07;16.60;99.90
24645;DHT22;12780;45.502;9.146;2022-10-29T23:56:33;16.70;99.90
24645;DHT22;12780;45.502;9.146;2022-10-29T23:58:58;16.70;99.90
